Time;durP1;ratioP1;P1;durP2;ratioP2;P2;SDS_P1;SDS_P2;PMS_P1;PMS_P2;Temp;Humidity;BMP_temperature;BMP_pressure;BME280_temperature;BME280_humidity;BME280_pressure;Samples;Min_cycle;Max_cycle;Signal;HPM_P1;HPM_P2
2022/10/22 00:07:07;;;;;;;10.13;7.95;;;;;;;21.52;53.40;100405.41;21043884;27;20043;-73
2022/10/22 00:17:07;;;;;;;11.73;8.30;;;;;;;21.52;53.38;100402.78;21073767;27;20048;-73
2022/10/22 00:27:09;;;;;;;10.63;7.72;;;;;;;21.49;52.94;100413.59;21054000;27;20501;-73
2022/10/22 00:37:10;;;;;;;10.63;8.03;;;;;;;21.48;53.24;100398.72;21045266;27;20063;-73
2022/10/22 00:47:10;;;;;;;9.52;7.55;;;;;;;21.48;53.39;100383.75;21059706;27;20054;-73
2022/10/22 00:57:11;;;;;;;9.02;7.72;;;;;;;21.46;53.49;100372.50;21058469;27;20040;-72
2022/10/22 01:07:21;;;;;;;9.43;7.50;;;;;;;21.43;53.21;100388.53;21062824;27;20072;-74
2022/10/22 01:18:03;;;;;;;8.82;7.50;;;;;;;21.44;53.42;100390.22;21058026;27;20044;-73
2022/10/22 01:28:32;;;;;;;9.13;7.13;;;;;;;21.43;52.90;100389.41;21050197;27;20048;-73
2022/10/22 01:38:33;;;;;;;9.65;7.50;;;;;;;21.42;53.21;100394.78;21006444;27;20051;-74
2022/10/22 01:48:58;;;;;;;8.32;7.32;;;;;;;21.39;52.99;100379.22;21054721;27;20051;-73
2022/10/22 01:59:14;;;;;;;8.13;7.18;;;;;;;21.38;53.24;100349.38;21059009;27;20410;-74
2022/10/22 02:09:17;;;;;;;10.05;7.55;;;;;;;21.35;53.33;100354.06;21047795;27;20048;-73
2022/10/22 02:19:24;;;;;;;;;;;;;;;21.34;53.03;100342.69;21053785;27;20082;-74
2022/10/22 02:29:42;;;;;;;9.60;7.03;;;;;;;21.36;52.87;100371.53;21053294;27;19916;-74
2022/10/22 02:39:44;;;;;;;8.23;6.93;;;;;;;21.35;52.95;100367.22;21048939;27;20047;-73
2022/10/22 02:49:45;;;;;;;7.93;6.27;;;;;;;21.34;53.28;100366.41;21050297;27;20040;-74
2022/10/22 02:59:45;;;;;;;8.33;6.67;;;;;;;21.33;53.60;100369.16;21056160;27;20568;-74
2022/10/22 03:09:46;;;;;;;7.93;6.22;;;;;;;21.32;53.38;100383.28;21048101;27;20331;-73
2022/10/22 03:19:46;;;;;;;7.90;6.32;;;;;;;21.29;53.38;100376.47;21061211;27;20040;-73
2022/10/22 03:29:50;;;;;;;6.97;5.93;;;;;;;21.28;53.15;100359.00;21041253;27;20028;-73
2022/10/22 03:39:51;;;;;;;7.03;5.90;;;;;;;21.26;53.57;100339.81;21045467;27;20073;-73
2022/10/22 03:49:52;;;;;;;7.07;5.68;;;;;;;21.26;53.13;100305.59;21067707;27;20056;-73
2022/10/22 03:59:52;;;;;;;9.90;5.53;;;;;;;21.26;53.17;100329.28;21076477;27;20043;-73
2022/10/22 04:09:52;;;;;;;6.30;5.28;;;;;;;21.24;53.14;100350.50;21074841;27;20184;-73
2022/10/22 04:19:53;;;;;;;6.95;5.45;;;;;;;21.21;53.19;100336.72;21063280;27;20055;-73
2022/10/22 04:29:53;;;;;;;6.43;5.40;;;;;;;21.22;53.50;100348.94;21046114;27;20047;-73
2022/10/22 04:39:54;;;;;;;6.47;4.97;;;;;;;21.21;53.36;100352.53;21052812;27;20044;-76
2022/10/22 04:49:54;;;;;;;5.60;5.00;;;;;;;21.18;53.27;100347.47;21072737;27;20130;-72
2022/10/22 04:59:54;;;;;;;5.57;4.90;;;;;;;21.17;53.16;100328.22;21057363;27;20051;-75
2022/10/22 05:09:54;;;;;;;9.10;4.90;;;;;;;21.20;53.72;100332.41;21062070;27;20092;-74
2022/10/22 05:19:55;;;;;;;5.10;4.60;;;;;;;21.26;54.08;100334.56;21060876;27;20135;-76
2022/10/22 05:29:55;;;;;;;9.98;4.90;;;;;;;21.28;54.16;100349.28;21069687;27;20093;-77
2022/10/22 05:39:56;;;;;;;7.43;4.70;;;;;;;21.29;54.96;100352.78;21076615;27;20044;-76
2022/10/22 05:49:56;;;;;;;10.98;4.57;;;;;;;21.31;55.12;100350.81;21069794;27;20097;-76
2022/10/22 05:59:56;;;;;;;6.68;4.70;;;;;;;21.34;55.25;100358.50;21060598;27;20059;-77
2022/10/22 06:09:58;;;;;;;7.03;4.53;;;;;;;21.36;55.98;100376.81;21059308;27;20036;-77
2022/10/22 06:19:58;;;;;;;15.63;6.45;;;;;;;21.27;52.09;100383.66;21069799;27;20044;-77
2022/10/22 06:29:59;;;;;;;13.30;6.47;;;;;;;21.25;51.16;100369.75;21049428;27;20498;-76
2022/10/22 06:39:59;;;;;;;12.23;6.47;;;;;;;21.31;52.38;100389.50;21032638;27;20082;-74
2022/10/22 06:50:00;;;;;;;7.43;5.20;;;;;;;21.36;52.63;100403.16;21050979;27;20044;-73
2022/10/22 07:00:00;;;;;;;10.45;5.40;;;;;;;21.39;53.38;100409.03;21060975;27;20058;-72
2022/10/22 07:10:01;;;;;;;8.55;4.78;;;;;;;21.43;53.57;100386.78;21065939;27;21917;-75
2022/10/22 07:20:01;;;;;;;18.27;5.07;;;;;;;21.43;53.82;100384.13;21071240;27;20549;-76
2022/10/22 07:30:03;;;;;;;14.63;5.23;;;;;;;21.46;53.49;100390.94;21085870;27;20430;-78
2022/10/22 07:40:03;;;;;;;23.65;5.57;;;;;;;21.48;53.05;100380.28;21072334;27;20296;-80
2022/10/22 07:50:06;;;;;;;19.45;5.25;;;;;;;21.49;53.80;100384.59;21074373;28;20047;-75
2022/10/22 08:00:08;;;;;;;12.80;4.77;;;;;;;21.49;53.97;100389.88;21072421;27;20035;-75
2022/10/22 08:10:09;;;;;;;17.85;6.50;;;;;;;21.27;43.90;100396.81;21072313;28;20324;-76
2022/10/22 08:20:10;;;;;;;34.65;8.93;;;;;;;20.76;38.95;100391.00;21073873;28;20130;-76
2022/10/22 08:30:12;;;;;;;20.23;8.30;;;;;;;20.51;36.69;100381.44;21080261;27;20036;-75
2022/10/22 08:40:33;;;;;;;19.63;7.55;;;;;;;20.51;40.46;100385.84;21070193;27;20352;-75
2022/10/22 08:50:42;;;;;;;27.30;7.03;;;;;;;20.68;43.23;100393.34;21079845;27;20035;-79
2022/10/22 09:00:51;;;;;;;14.50;6.97;;;;;;;20.77;43.29;100392.66;21080297;27;20046;-75
2022/10/22 09:11:00;;;;;;;18.58;8.68;;;;;;;20.09;40.25;100381.03;21070900;27;20142;-74
2022/10/22 09:21:22;;;;;;;17.77;7.80;;;;;;;20.25;42.99;100407.88;21076041;27;20055;-75
2022/10/22 09:31:29;;;;;;;18.50;7.53;;;;;;;20.43;43.98;100384.66;21078928;27;20631;-74
2022/10/22 09:41:29;;;;;;;15.63;7.07;;;;;;;20.55;45.70;100401.31;21059093;27;20147;-75
2022/10/22 09:51:46;;;;;;;21.65;7.18;;;;;;;20.80;49.41;100404.78;21053654;27;20043;-74
2022/10/22 10:02:10;;;;;;;18.30;9.02;;;;;;;20.61;42.46;100390.31;21055642;27;20142;-75
2022/10/22 10:12:43;;;;;;;14.50;6.82;;;;;;;20.76;46.49;100392.78;21048758;27;20096;-74
2022/10/22 10:22:43;;;;;;;12.55;6.45;;;;;;;20.87;48.36;100366.50;21051553;27;20048;-75
2022/10/22 10:32:52;;;;;;;16.15;6.53;;;;;;;20.94;49.38;100375.59;21063906;27;20059;-74
2022/10/22 10:42:56;;;;;;;19.20;7.03;;;;;;;21.04;50.52;100370.44;21052549;27;20045;-74
2022/10/22 10:53:06;;;;;;;21.63;7.38;;;;;;;21.16;51.53;100389.75;21050434;27;20539;-76
2022/10/22 11:03:44;;;;;;;30.45;8.05;;;;;;;21.26;53.32;100398.63;21035216;27;20047;-76
2022/10/22 11:13:59;;;;;;;27.73;8.15;;;;;;;21.34;53.91;100387.47;21042406;27;21708;-74
2022/10/22 11:24:18;;;;;;;19.83;7.22;;;;;;;21.40;53.16;100375.63;21052602;27;20118;-80
2022/10/22 11:34:32;;;;;;;17.88;7.18;;;;;;;21.43;52.97;100354.31;21050223;27;20036;-74
2022/10/22 11:44:45;;;;;;;16.33;6.82;;;;;;;21.44;52.45;100348.91;21062249;28;20044;-75
2022/10/22 11:54:45;;;;;;;15.43;7.00;;;;;;;21.46;51.98;100334.78;21061532;28;20035;-74
2022/10/22 12:04:46;;;;;;;16.48;8.93;;;;;;;21.18;46.87;100337.81;21073230;27;20070;-77
2022/10/22 12:14:55;;;;;;;11.15;6.85;;;;;;;21.36;50.09;100330.25;21065377;27;20047;-78
2022/10/22 12:25:00;;;;;;;16.95;6.75;;;;;;;21.41;50.72;100322.81;21063655;27;20039;-76
2022/10/22 12:35:08;;;;;;;15.10;6.30;;;;;;;21.42;50.98;100307.84;21075448;27;20050;-77
2022/10/22 12:45:08;;;;;;;10.07;5.82;;;;;;;21.43;50.81;100307.75;21072400;27;20039;-75
2022/10/22 12:55:15;;;;;;;12.60;6.23;;;;;;;21.44;51.06;100313.84;21070023;27;20040;-74
2022/10/22 13:05:18;;;;;;;12.43;6.45;;;;;;;21.46;51.15;100327.72;21056806;27;20304;-76
2022/10/22 13:15:31;;;;;;;9.23;6.05;;;;;;;21.46;51.97;100324.25;21060456;27;20058;-76
2022/10/22 13:25:34;;;;;;;12.90;6.32;;;;;;;21.48;52.44;100319.69;21066546;27;20094;-76
2022/10/22 13:35:36;;;;;;;18.13;9.00;;;;;;;21.50;53.25;100323.06;21063814;27;20110;-75
2022/10/22 13:45:36;;;;;;;18.23;10.23;;;;;;;21.52;53.75;100321.97;21053799;27;20150;-73
2022/10/22 13:55:38;;;;;;;15.23;10.32;;;;;;;21.53;53.50;100328.06;21086849;27;20048;-72
2022/10/22 14:05:38;;;;;;;28.38;11.55;;;;;;;21.57;53.07;100330.38;21052335;27;20401;-74
2022/10/22 14:15:39;;;;;;;16.48;10.32;;;;;;;21.58;53.19;100333.81;21066006;27;20059;-75
2022/10/22 14:25:40;;;;;;;17.92;9.75;;;;;;;21.61;53.30;100338.88;21065416;27;20422;-78
2022/10/22 14:35:41;;;;;;;23.98;10.63;;;;;;;21.58;52.05;100331.19;21073223;27;20058;-78
2022/10/22 14:45:41;;;;;;;17.10;10.07;;;;;;;21.56;52.48;100325.19;21077470;27;20050;-79
2022/10/22 14:55:45;;;;;;;15.73;9.45;;;;;;;21.58;52.44;100345.22;21048670;27;20130;-78
2022/10/22 15:05:52;;;;;;;17.13;9.32;;;;;;;21.57;52.29;100348.81;21046931;27;20043;-78
2022/10/22 15:15:54;;;;;;;20.05;9.98;;;;;;;21.53;52.04;100349.13;21033359;27;20051;-77
2022/10/22 15:25:55;;;;;;;19.98;10.82;;;;;;;21.59;53.21;100348.69;21023202;27;20524;-76
2022/10/22 15:35:56;;;;;;;20.90;12.30;;;;;;;21.62;53.02;100347.59;21058661;27;20410;-77
2022/10/22 15:46:17;;;;;;;21.80;11.48;;;;;;;21.64;53.38;100356.22;21059333;27;20044;-77
2022/10/22 15:56:18;;;;;;;17.92;11.43;;;;;;;21.65;53.44;100366.63;21062628;27;20519;-77
2022/10/22 16:06:18;;;;;;;16.48;11.07;;;;;;;21.66;52.97;100381.50;21058590;27;20057;-77
2022/10/22 16:16:20;;;;;;;19.98;11.25;;;;;;;21.68;53.74;100407.72;21050512;27;20052;-78
2022/10/22 16:26:20;;;;;;;24.23;11.60;;;;;;;21.71;53.90;100418.03;21048471;28;20505;-77
2022/10/22 16:36:21;;;;;;;24.13;10.85;;;;;;;21.74;54.69;100457.31;21046477;27;20047;-78
2022/10/22 16:46:22;;;;;;;15.30;11.35;;;;;;;21.77;55.17;100477.34;21074483;27;20067;-77
2022/10/22 16:56:24;;;;;;;21.27;13.02;;;;;;;21.83;55.35;100490.84;21058314;27;20523;-75
2022/10/22 17:06:25;;;;;;;21.48;13.07;;;;;;;21.85;55.48;100494.22;21066743;27;20308;-75
2022/10/22 17:16:26;;;;;;;21.00;12.02;;;;;;;21.86;55.27;100502.94;21050458;27;20052;-73
2022/10/22 17:26:26;;;;;;;18.73;11.73;;;;;;;21.85;55.47;100470.50;21061604;27;20044;-74
2022/10/22 17:36:28;;;;;;;25.30;11.27;;;;;;;21.88;56.04;100487.84;21033871;27;20036;-74
2022/10/22 17:46:30;;;;;;;15.15;10.18;;;;;;;21.88;56.29;100508.94;21011110;27;20051;-74
2022/10/22 17:56:31;;;;;;;18.13;10.43;;;;;;;21.88;56.73;100530.88;21040936;27;20040;-74
2022/10/22 18:06:33;;;;;;;15.00;9.55;;;;;;;21.85;56.02;100519.72;21067466;27;20427;-76
2022/10/22 18:16:33;;;;;;;18.33;9.37;;;;;;;21.85;56.27;100538.16;21075996;27;20531;-78
2022/10/22 18:26:33;;;;;;;18.02;9.25;;;;;;;21.84;56.14;100537.34;21060938;27;20123;-75
2022/10/22 18:36:34;;;;;;;19.58;9.65;;;;;;;21.81;55.83;100548.13;21063391;27;20047;-74
2022/10/22 18:46:37;;;;;;;15.93;8.75;;;;;;;21.78;55.58;100577.38;21066363;27;20209;-75
2022/10/22 18:56:39;;;;;;;;;;;;;;;21.78;55.68;100572.09;21075829;27;20047;-74
2022/10/22 19:06:41;;;;;;;17.30;8.87;;;;;;;21.75;56.34;100573.16;21070856;27;20394;-75
2022/10/22 19:16:41;;;;;;;14.47;8.23;;;;;;;21.74;56.50;100575.94;21077941;27;20096;-75
2022/10/22 19:26:41;;;;;;;13.50;7.80;;;;;;;21.72;56.93;100585.75;21082662;28;20680;-73
2022/10/22 19:36:42;;;;;;;13.80;7.85;;;;;;;21.70;56.48;100590.28;21065344;27;20132;-74
2022/10/22 19:46:42;;;;;;;11.35;7.75;;;;;;;21.65;56.29;100605.63;21066208;28;20048;-73
2022/10/22 19:56:44;;;;;;;13.18;7.60;;;;;;;21.65;56.61;100613.53;21060852;28;20101;-74
2022/10/22 20:06:45;;;;;;;14.17;8.20;;;;;;;21.65;56.47;100629.34;21070594;28;20047;-74
2022/10/22 20:16:45;;;;;;;11.23;8.73;;;;;;;21.62;57.07;100640.94;21070753;28;20044;-74
2022/10/22 20:26:47;;;;;;;13.90;9.10;;;;;;;21.62;57.32;100654.13;21092587;27;20040;-75
2022/10/22 20:36:47;;;;;;;13.43;9.40;;;;;;;21.61;57.22;100651.59;21096212;27;20134;-74
2022/10/22 20:46:50;;;;;;;12.63;9.27;;;;;;;21.60;57.18;100656.03;21084512;27;20089;-75
2022/10/22 20:56:50;;;;;;;14.18;9.55;;;;;;;21.59;57.42;100672.78;21087840;27;20115;-74
2022/10/22 21:06:52;;;;;;;13.40;9.18;;;;;;;21.58;57.07;100671.09;21090691;27;20050;-75
2022/10/22 21:16:52;;;;;;;12.00;9.02;;;;;;;21.57;57.18;100656.28;21097982;27;20062;-75
2022/10/22 21:26:53;;;;;;;11.23;8.63;;;;;;;21.55;57.22;100679.22;21092277;27;20055;-75
2022/10/22 21:36:53;;;;;;;16.15;8.63;;;;;;;21.54;56.89;100677.53;21082768;27;20406;-74
2022/10/22 21:46:54;;;;;;;10.65;8.23;;;;;;;21.53;56.67;100683.75;21075727;27;20040;-73
2022/10/22 21:56:54;;;;;;;11.40;8.50;;;;;;;21.49;56.88;100669.13;21064353;27;20039;-74
2022/10/22 22:06:55;;;;;;;12.15;8.13;;;;;;;21.47;56.51;100671.88;21059541;27;20087;-74
2022/10/22 22:16:55;;;;;;;10.48;7.85;;;;;;;21.46;56.51;100672.84;21066901;27;20039;-74
2022/10/22 22:26:56;;;;;;;11.60;7.25;;;;;;;21.42;56.16;100688.03;21049276;27;20129;-75
2022/10/22 22:36:56;;;;;;;8.27;7.00;;;;;;;21.42;55.96;100692.44;21064473;27;20032;-74
2022/10/22 22:46:56;;;;;;;10.38;7.40;;;;;;;21.40;56.23;100694.38;21053673;27;20154;-74
2022/10/22 22:56:57;;;;;;;9.50;6.90;;;;;;;21.39;56.04;100722.50;21055879;27;20039;-74
2022/10/22 23:06:58;;;;;;;8.10;6.57;;;;;;;21.40;56.70;100728.63;21057609;27;20074;-74
2022/10/22 23:16:58;;;;;;;8.52;7.00;;;;;;;21.38;56.59;100725.25;21072259;27;20130;-75
2022/10/22 23:27:01;;;;;;;8.50;6.88;;;;;;;21.37;56.30;100721.78;21058571;28;20051;-76
2022/10/22 23:37:02;;;;;;;8.77;6.55;;;;;;;21.34;56.47;100716.72;21060039;27;20143;-75
2022/10/22 23:47:03;;;;;;;7.68;6.45;;;;;;;21.34;56.18;100719.34;21052303;27;20044;-75
2022/10/22 23:57:03;;;;;;;8.43;6.20;;;;;;;21.30;56.04;100731.09;21069836;27;20044;-75
